createdAt,value
2023-01-26T00:00:30.511Z,17.77
2023-01-26T00:01:32.588Z,15.83
2023-01-26T00:02:34.663Z,17.66
2023-01-26T00:03:37.561Z,17.70
2023-01-26T00:04:39.635Z,16.38
2023-01-26T00:05:41.609Z,16.29
2023-01-26T00:06:43.705Z,17.39
2023-01-26T00:07:45.652Z,16.81
2023-01-26T00:08:50.287Z,17.29
2023-01-26T00:09:52.201Z,16.68
2023-01-26T00:10:54.180Z,17.33
2023-01-26T00:11:56.327Z,18.45
2023-01-26T00:12:58.244Z,20.82
2023-01-26T00:14:00.709Z,21.89
2023-01-26T00:15:03.117Z,19.83
2023-01-26T00:16:09.437Z,21.52
2023-01-26T00:17:11.843Z,19.94
2023-01-26T00:18:14.645Z,18.25
2023-01-26T00:19:16.689Z,17.41
2023-01-26T00:20:21.299Z,18.15
2023-01-26T00:21:24.350Z,17.28
2023-01-26T00:22:27.274Z,18.65
2023-01-26T00:23:31.458Z,18.24
2023-01-26T00:24:33.370Z,18.28
2023-01-26T00:25:38.901Z,18.65
2023-01-26T00:26:40.921Z,17.78
2023-01-26T00:27:42.957Z,17.04
2023-01-26T00:28:46.285Z,18.71
2023-01-26T00:29:48.349Z,17.89
2023-01-26T00:30:50.613Z,19.03
2023-01-26T00:31:52.748Z,19.50
2023-01-26T00:32:54.657Z,18.27
2023-01-26T00:33:57.694Z,18.50
2023-01-26T00:34:59.836Z,18.07
2023-01-26T00:36:02.012Z,19.60
2023-01-26T00:37:04.017Z,19.01
2023-01-26T00:38:05.945Z,20.03
2023-01-26T00:39:08.756Z,20.86
2023-01-26T00:40:11.538Z,21.82
2023-01-26T00:41:13.965Z,20.83
2023-01-26T00:42:16.048Z,19.53
2023-01-26T00:43:18.188Z,19.74
2023-01-26T00:44:20.265Z,18.53
2023-01-26T00:45:22.359Z,17.88
2023-01-26T00:46:25.336Z,18.63
2023-01-26T00:47:27.413Z,19.67
2023-01-26T00:48:30.467Z,18.44
2023-01-26T00:49:32.796Z,18.74
2023-01-26T00:50:34.900Z,22.33
2023-01-26T00:51:36.836Z,21.45
2023-01-26T00:52:39.845Z,22.14
2023-01-26T00:53:41.921Z,22.77
2023-01-26T00:54:43.909Z,21.25
2023-01-26T00:55:45.900Z,21.59
2023-01-26T00:56:47.882Z,20.25
2023-01-26T00:57:50.109Z,19.96
2023-01-26T00:58:51.991Z,21.23
2023-01-26T00:59:53.997Z,23.05
2023-01-26T01:00:56.111Z,23.49
2023-01-26T01:01:58.987Z,24.18
2023-01-26T01:03:02.186Z,22.79
2023-01-26T01:04:04.455Z,23.06
2023-01-26T01:05:09.251Z,22.32
2023-01-26T01:06:11.342Z,21.13
2023-01-26T01:07:13.648Z,20.23
2023-01-26T01:08:15.877Z,19.64
2023-01-26T01:09:18.077Z,18.06
2023-01-26T01:10:23.663Z,18.57
2023-01-26T01:11:26.268Z,19.05
2023-01-26T01:12:28.249Z,19.33
2023-01-26T01:13:30.139Z,18.71
2023-01-26T01:14:32.352Z,18.85
2023-01-26T01:15:38.131Z,18.96
2023-01-26T01:16:41.744Z,18.21
2023-01-26T01:17:43.651Z,18.16
2023-01-26T01:18:45.997Z,17.21
2023-01-26T01:19:47.891Z,20.17
2023-01-26T01:20:51.097Z,19.06
2023-01-26T01:21:54.213Z,21.29
2023-01-26T01:22:56.096Z,19.39
2023-01-26T01:24:00.055Z,21.01
2023-01-26T01:25:02.870Z,20.26
2023-01-26T01:26:06.079Z,18.41
2023-01-26T01:27:08.121Z,18.94
2023-01-26T01:28:10.003Z,18.26
2023-01-26T01:29:13.856Z,19.03
2023-01-26T01:30:16.896Z,18.72
2023-01-26T01:31:18.850Z,18.31
2023-01-26T01:32:21.524Z,19.62
2023-01-26T01:33:24.790Z,18.21
2023-01-26T01:34:26.943Z,18.82
2023-01-26T01:35:29.104Z,18.48
2023-01-26T01:36:31.359Z,18.35
2023-01-26T01:37:33.970Z,18.16
2023-01-26T01:38:35.884Z,18.47
2023-01-26T01:39:37.763Z,17.90
2023-01-26T01:40:43.717Z,18.17
2023-01-26T01:41:45.663Z,19.49
2023-01-26T01:42:49.470Z,18.49
2023-01-26T01:43:51.571Z,19.48
2023-01-26T01:47:34.660Z,18.19
2023-01-26T01:48:56.150Z,18.17
2023-01-26T01:51:07.048Z,19.67
2023-01-26T01:52:15.691Z,19.53
2023-01-26T01:53:21.372Z,19.03
2023-01-26T01:54:27.870Z,19.68
2023-01-26T01:55:31.226Z,20.81
2023-01-26T01:56:37.087Z,20.07
2023-01-26T01:57:51.903Z,21.01
2023-01-26T01:58:56.651Z,20.01
2023-01-26T02:00:12.126Z,20.70
2023-01-26T02:01:15.451Z,19.73
2023-01-26T02:02:18.406Z,20.60
2023-01-26T02:03:24.144Z,21.81
2023-01-26T02:04:26.268Z,20.29
2023-01-26T02:05:31.910Z,20.81
2023-01-26T02:06:41.132Z,20.99
2023-01-26T02:07:45.841Z,20.01
2023-01-26T02:08:53.471Z,20.26
2023-01-26T02:09:57.200Z,21.61
2023-01-26T02:11:07.471Z,20.64
2023-01-26T02:12:13.690Z,20.44
2023-01-26T02:13:19.022Z,20.58
2023-01-26T02:14:21.821Z,21.77
2023-01-26T02:15:23.835Z,22.49
2023-01-26T02:16:26.115Z,22.44
2023-01-26T02:17:28.396Z,23.10
2023-01-26T02:18:30.535Z,21.05
2023-01-26T02:19:45.451Z,20.23
2023-01-26T02:20:53.761Z,21.68
2023-01-26T02:21:59.561Z,20.92
2023-01-26T02:23:33.976Z,20.66
2023-01-26T02:24:39.065Z,19.72
2023-01-26T02:25:50.910Z,21.42
2023-01-26T02:26:53.625Z,20.73
2023-01-26T02:27:55.882Z,22.69
2023-01-26T02:28:59.118Z,20.57
2023-01-26T02:30:05.144Z,21.09
2023-01-26T02:31:09.250Z,20.82
2023-01-26T02:32:11.312Z,20.76
2023-01-26T02:33:23.743Z,21.39
2023-01-26T02:34:25.678Z,22.31
2023-01-26T02:35:27.658Z,22.50
2023-01-26T02:36:32.129Z,20.52
2023-01-26T02:37:35.778Z,22.21
2023-01-26T02:38:44.093Z,21.81
2023-01-26T02:40:02.084Z,21.36
2023-01-26T02:41:07.744Z,22.17
2023-01-26T02:42:11.154Z,21.08
2023-01-26T02:43:14.215Z,21.77
2023-01-26T02:44:16.849Z,21.17
2023-01-26T02:45:22.557Z,20.05
2023-01-26T02:46:24.968Z,21.99
2023-01-26T02:47:27.467Z,21.22
2023-01-26T02:48:29.912Z,22.09
2023-01-26T02:49:31.796Z,21.32
2023-01-26T02:50:35.080Z,21.67
2023-01-26T02:51:37.420Z,22.11
2023-01-26T02:52:39.521Z,22.63
2023-01-26T02:53:41.391Z,20.67
2023-01-26T02:54:43.499Z,20.87
2023-01-26T02:55:45.536Z,20.28
2023-01-26T02:56:47.514Z,20.97
2023-01-26T02:57:50.955Z,21.30
2023-01-26T02:58:53.003Z,22.07
2023-01-26T02:59:54.975Z,20.88
2023-01-26T03:01:00.862Z,20.83
2023-01-26T03:02:03.219Z,21.81
2023-01-26T03:03:15.439Z,20.89
2023-01-26T03:04:17.483Z,22.21
2023-01-26T03:05:19.572Z,21.40
2023-01-26T03:06:21.562Z,20.81
2023-01-26T03:07:23.594Z,20.11
2023-01-26T03:08:25.568Z,21.11
2023-01-26T03:09:27.558Z,20.97
2023-01-26T03:10:29.548Z,21.12
2023-01-26T03:11:32.218Z,19.77
2023-01-26T03:12:34.779Z,21.99
2023-01-26T03:13:38.596Z,21.23
2023-01-26T03:14:42.571Z,21.31
2023-01-26T03:15:44.582Z,20.66
2023-01-26T03:16:47.128Z,20.50
2023-01-26T03:17:49.184Z,21.60
2023-01-26T03:18:51.072Z,22.13
2023-01-26T03:19:53.045Z,21.01
2023-01-26T03:20:55.737Z,21.52
2023-01-26T03:21:58.725Z,22.24
2023-01-26T03:23:00.680Z,22.12
2023-01-26T03:24:05.863Z,21.98
2023-01-26T03:25:08.817Z,21.67
2023-01-26T03:26:11.493Z,21.52
2023-01-26T03:27:13.380Z,21.40
2023-01-26T03:28:15.403Z,22.89
2023-01-26T03:29:18.014Z,20.62
2023-01-26T03:30:20.628Z,20.62
2023-01-26T03:31:22.584Z,21.66
2023-01-26T03:32:26.384Z,21.11
2023-01-26T03:33:28.332Z,20.44
2023-01-26T03:34:30.737Z,19.77
2023-01-26T03:35:32.628Z,21.59
2023-01-26T03:36:34.759Z,21.49
2023-01-26T03:37:37.817Z,20.52
2023-01-26T03:38:39.740Z,21.00
2023-01-26T03:39:41.629Z,21.03
2023-01-26T03:40:44.512Z,21.71
2023-01-26T03:41:46.405Z,20.29
2023-01-26T03:42:48.377Z,20.75
2023-01-26T03:43:50.258Z,21.43
2023-01-26T03:44:52.176Z,21.35
2023-01-26T03:45:54.166Z,19.99
2023-01-26T03:46:56.248Z,20.28
2023-01-26T03:49:22.831Z,20.48
2023-01-26T03:50:26.178Z,19.48
2023-01-26T03:51:28.114Z,20.52
2023-01-26T03:55:05.388Z,19.69
2023-01-26T03:56:10.141Z,19.86
2023-01-26T03:57:12.128Z,20.55
2023-01-26T03:58:14.683Z,19.36
2023-01-26T03:59:16.874Z,19.61
2023-01-26T04:00:19.521Z,19.67
2023-01-26T04:01:24.326Z,19.76
2023-01-26T04:02:26.657Z,18.43
2023-01-26T04:03:28.672Z,18.44
2023-01-26T04:04:31.065Z,18.57
2023-01-26T04:05:33.076Z,18.75
2023-01-26T04:06:36.382Z,18.79
2023-01-26T04:07:38.943Z,19.47
2023-01-26T04:08:40.865Z,19.03
2023-01-26T04:09:42.760Z,19.16
2023-01-26T04:10:44.854Z,19.89
2023-01-26T06:15:28.993Z,31.01
2023-01-26T06:16:30.996Z,32.94
2023-01-26T06:17:33.514Z,36.03
2023-01-26T06:18:38.245Z,33.33
2023-01-26T06:19:41.078Z,35.59
2023-01-26T06:20:44.354Z,33.84
2023-01-26T06:21:46.460Z,33.60
2023-01-26T06:22:48.408Z,32.92
2023-01-26T06:23:50.508Z,31.82
2023-01-26T06:24:52.561Z,31.13
2023-01-26T06:26:00.004Z,33.17
2023-01-26T06:27:02.172Z,33.17
2023-01-26T06:28:05.144Z,31.25
2023-01-26T06:29:08.252Z,29.89
2023-01-26T06:30:11.850Z,32.79
2023-01-26T06:31:14.533Z,30.11
2023-01-26T06:32:17.020Z,29.17
2023-01-26T06:33:18.894Z,30.93
2023-01-26T06:34:20.765Z,31.49
2023-01-26T06:35:22.965Z,29.01
2023-01-26T06:36:25.070Z,30.39
2023-01-26T06:37:26.960Z,30.38
2023-01-26T06:38:29.464Z,29.19
2023-01-26T06:39:31.555Z,29.37
2023-01-26T06:40:33.758Z,29.52
2023-01-26T06:41:36.033Z,28.41
2023-01-26T06:42:38.917Z,26.94
2023-01-26T06:43:46.595Z,28.42
2023-01-26T06:44:48.536Z,28.17
2023-01-26T06:45:51.121Z,27.01
2023-01-26T06:46:53.293Z,26.55
2023-01-26T06:47:55.157Z,28.41
2023-01-26T06:48:57.376Z,29.92
2023-01-26T06:49:59.262Z,28.39
2023-01-26T06:51:11.354Z,27.94
2023-01-26T06:52:22.203Z,27.80
2023-01-26T06:53:27.474Z,27.06
2023-01-26T06:54:29.383Z,26.66
2023-01-26T06:55:37.588Z,26.42
2023-01-26T06:56:40.042Z,27.11
2023-01-26T06:57:42.091Z,26.65
2023-01-26T06:58:43.972Z,24.56
2023-01-26T06:59:45.857Z,25.59
2023-01-26T07:00:47.824Z,26.89
2023-01-26T07:01:49.723Z,27.71
2023-01-26T07:02:51.728Z,25.69
2023-01-26T07:03:54.682Z,28.60
2023-01-26T07:04:56.875Z,27.69
2023-01-26T07:05:58.915Z,27.83
2023-01-26T07:07:00.925Z,26.33
2023-01-26T07:08:03.053Z,31.41
2023-01-26T07:09:05.448Z,29.13
2023-01-26T07:10:09.787Z,28.82
2023-01-26T07:11:12.817Z,27.13
2023-01-26T07:12:15.263Z,27.59
2023-01-26T07:13:17.718Z,27.56
2023-01-26T07:14:19.583Z,26.77
2023-01-26T07:15:22.921Z,26.48
2023-01-26T07:16:25.573Z,27.55
2023-01-26T07:17:27.690Z,26.97
2023-01-26T07:18:29.829Z,26.37
2023-01-26T07:19:31.849Z,25.99
2023-01-26T07:20:33.815Z,25.85
2023-01-26T07:21:35.718Z,24.59
2023-01-26T07:22:37.752Z,24.87
2023-01-26T07:23:41.117Z,22.02
2023-01-26T07:24:43.028Z,22.42
2023-01-26T07:25:45.032Z,23.58
2023-01-26T07:26:48.250Z,23.42
2023-01-26T07:27:58.579Z,22.29
2023-01-26T07:29:00.705Z,23.33
2023-01-26T07:30:04.126Z,22.33
2023-01-26T07:31:08.208Z,24.18
2023-01-26T07:32:10.278Z,23.22
2023-01-26T07:33:12.196Z,22.89
2023-01-26T07:34:14.810Z,22.21
2023-01-26T07:35:17.251Z,22.85
2023-01-26T07:36:19.370Z,22.66
2023-01-26T07:37:21.323Z,22.60
2023-01-26T07:38:24.957Z,23.39
2023-01-26T07:39:27.102Z,24.11
2023-01-26T07:40:30.432Z,22.13
2023-01-26T07:41:32.314Z,22.54
2023-01-26T07:42:34.257Z,21.89
2023-01-26T07:43:37.356Z,22.16
2023-01-26T07:44:39.331Z,23.02
2023-01-26T07:45:52.005Z,21.32
2023-01-26T07:46:54.254Z,22.76
2023-01-26T07:47:57.388Z,23.22
2023-01-26T07:49:00.227Z,22.77
2023-01-26T07:50:02.442Z,23.51
2023-01-26T07:51:07.525Z,22.53
2023-01-26T07:52:09.465Z,23.81
2023-01-26T07:53:11.563Z,22.89
2023-01-26T07:54:13.873Z,23.29
2023-01-26T07:55:16.151Z,22.80
2023-01-26T07:56:18.386Z,21.16
2023-01-26T07:57:20.376Z,19.99
2023-01-26T07:58:22.455Z,20.93
2023-01-26T07:59:24.709Z,21.55
2023-01-26T08:00:26.913Z,19.70
2023-01-26T08:01:29.023Z,19.78
2023-01-26T08:02:31.075Z,20.09
2023-01-26T08:03:33.318Z,21.21
2023-01-26T08:04:35.224Z,20.21
2023-01-26T08:05:37.342Z,20.29
2023-01-26T08:06:39.867Z,18.77
2023-01-26T08:07:41.956Z,18.33
2023-01-26T08:08:45.178Z,19.05
2023-01-26T08:09:47.239Z,17.59
2023-01-26T08:10:50.006Z,19.10
2023-01-26T08:11:51.914Z,18.31
2023-01-26T08:12:54.183Z,19.52
2023-01-26T08:13:56.052Z,18.15
2023-01-26T08:14:58.047Z,17.99
2023-01-26T08:18:15.560Z,17.94
2023-01-26T08:19:18.016Z,16.47
2023-01-26T08:20:21.631Z,16.94
2023-01-26T08:21:23.635Z,16.86
2023-01-26T08:22:25.931Z,17.43
2023-01-26T08:23:27.980Z,16.95
2023-01-26T08:24:29.954Z,16.65
2023-01-26T08:25:31.847Z,16.58
2023-01-26T08:26:33.969Z,17.27
2023-01-26T08:27:35.878Z,17.03
2023-01-26T08:28:38.189Z,17.74
2023-01-26T08:29:40.094Z,16.15
2023-01-26T08:30:43.872Z,15.98
2023-01-26T08:31:47.727Z,16.56
2023-01-26T08:32:51.261Z,17.78
2023-01-26T08:33:53.317Z,17.15
2023-01-26T08:34:55.286Z,16.77
2023-01-26T08:36:03.272Z,16.41
2023-01-26T08:37:05.215Z,15.71
2023-01-26T08:38:07.299Z,17.72
2023-01-26T08:39:09.198Z,16.28
2023-01-26T08:40:12.637Z,16.63
2023-01-26T08:41:14.916Z,17.87
2023-01-26T08:42:16.811Z,16.93
2023-01-26T08:43:18.697Z,17.53
2023-01-26T08:44:20.763Z,15.90
2023-01-26T08:45:22.636Z,18.36
2023-01-26T08:46:25.542Z,18.39
2023-01-26T08:47:27.430Z,17.51
2023-01-26T08:48:29.617Z,17.37
2023-01-26T08:49:31.660Z,16.99
2023-01-26T08:50:33.679Z,17.43
2023-01-26T08:51:36.334Z,16.79
2023-01-26T08:52:38.285Z,16.75
2023-01-26T08:53:40.185Z,18.45
2023-01-26T08:54:42.059Z,18.42
2023-01-26T08:55:44.104Z,19.60
2023-01-26T08:56:46.210Z,19.67
2023-01-26T08:57:52.862Z,20.70
2023-01-26T08:58:55.937Z,21.01
2023-01-26T08:59:58.181Z,20.72
2023-01-26T09:01:14.648Z,20.41
2023-01-26T09:02:17.028Z,19.19
2023-01-26T09:03:19.468Z,17.77
2023-01-26T09:04:21.486Z,19.73
2023-01-26T09:05:24.021Z,19.56
2023-01-26T09:06:29.071Z,18.69
2023-01-26T09:07:33.255Z,18.21
2023-01-26T09:08:36.609Z,18.30
2023-01-26T09:09:38.621Z,19.43
2023-01-26T09:10:40.595Z,18.12
2023-01-26T09:11:42.595Z,18.86
2023-01-26T09:12:44.481Z,18.51
2023-01-26T09:16:07.511Z,17.42
2023-01-26T09:17:09.565Z,20.89
2023-01-26T09:18:11.773Z,19.18
2023-01-26T09:19:13.762Z,19.35
2023-01-26T09:20:17.479Z,18.49
2023-01-26T09:21:20.665Z,18.13
2023-01-26T09:22:22.696Z,17.72
2023-01-26T09:23:24.734Z,18.81
2023-01-26T09:24:26.659Z,17.75
2023-01-26T09:25:28.903Z,18.83
2023-01-26T09:26:31.499Z,18.03
2023-01-26T09:27:34.143Z,17.77
2023-01-26T09:28:36.163Z,17.83
2023-01-26T09:29:38.041Z,18.64
2023-01-26T09:30:40.351Z,17.73
2023-01-26T09:31:42.553Z,17.59
2023-01-26T09:32:44.704Z,18.80
2023-01-26T09:33:48.807Z,18.59
2023-01-26T09:34:51.771Z,19.02
2023-01-26T09:35:53.697Z,18.96
2023-01-26T09:36:56.318Z,19.17
2023-01-26T09:37:58.230Z,18.40
2023-01-26T09:39:00.472Z,19.51
2023-01-26T09:40:02.713Z,18.99
2023-01-26T09:41:20.595Z,19.64
2023-01-26T09:42:29.311Z,18.87
2023-01-26T09:43:44.665Z,22.13
2023-01-26T09:45:05.328Z,18.36
2023-01-26T09:46:13.935Z,23.02
2023-01-26T09:47:26.671Z,20.45
2023-01-26T09:48:35.144Z,22.30
2023-01-26T09:49:55.608Z,23.23
2023-01-26T09:51:09.798Z,21.73
2023-01-26T09:52:27.151Z,18.71
2023-01-26T09:53:41.821Z,19.11
2023-01-26T09:54:47.544Z,22.03
2023-01-26T09:55:52.022Z,22.12
2023-01-26T09:56:55.032Z,21.60
2023-01-26T09:58:05.606Z,23.18
2023-01-26T09:59:26.306Z,23.08
2023-01-26T10:00:49.868Z,22.14
2023-01-26T10:01:58.887Z,23.12
2023-01-26T10:03:37.826Z,24.54
2023-01-26T10:04:43.358Z,21.36
2023-01-26T10:06:07.228Z,18.72
2023-01-26T14:13:38.415Z,16.64
2023-01-26T14:14:42.739Z,18.11
2023-01-26T14:15:46.789Z,18.46
2023-01-26T14:16:49.083Z,17.01
2023-01-26T14:17:57.080Z,16.46
2023-01-26T14:19:14.618Z,16.89
2023-01-26T14:20:26.053Z,15.65
2023-01-26T14:21:28.374Z,16.16
2023-01-26T14:22:30.785Z,17.11
2023-01-26T14:23:35.289Z,16.89
2023-01-26T14:24:38.423Z,17.19
2023-01-26T14:25:49.973Z,17.22
2023-01-26T14:26:53.300Z,17.40
2023-01-26T14:27:59.305Z,16.97
2023-01-26T14:29:01.990Z,16.88
2023-01-26T14:32:35.430Z,17.41
2023-01-26T14:33:37.578Z,18.68
2023-01-26T14:34:43.478Z,17.71
2023-01-26T14:36:02.799Z,17.23
2023-01-26T14:39:26.342Z,18.67
2023-01-26T14:40:28.909Z,18.05
2023-01-26T14:41:33.426Z,17.82
2023-01-26T14:42:37.416Z,17.94
2023-01-26T14:43:39.634Z,18.38
2023-01-26T14:44:42.027Z,17.88
2023-01-26T14:45:55.189Z,19.42
2023-01-26T14:47:03.831Z,20.60
2023-01-26T14:48:09.585Z,20.03
2023-01-26T14:50:47.376Z,19.21
2023-01-26T14:51:53.026Z,19.36
2023-01-26T14:52:55.834Z,19.77
2023-01-26T14:54:04.365Z,20.58
2023-01-26T14:55:31.158Z,19.64
2023-01-26T14:56:37.017Z,19.93
2023-01-26T14:57:39.351Z,21.16
2023-01-26T14:58:42.056Z,19.12
2023-01-26T14:59:47.731Z,19.75
2023-01-26T15:00:51.221Z,20.87
2023-01-26T15:02:03.332Z,21.76
2023-01-26T15:03:09.203Z,21.10
2023-01-26T15:04:14.861Z,20.68
2023-01-26T15:05:19.281Z,21.76
2023-01-26T15:06:25.283Z,20.17
2023-01-26T15:07:40.017Z,21.81
2023-01-26T15:08:54.636Z,21.57
2023-01-26T15:09:57.263Z,21.23
2023-01-26T15:11:05.689Z,21.29
2023-01-26T15:12:11.402Z,21.83
2023-01-26T15:13:19.658Z,21.59
2023-01-26T15:14:37.976Z,21.25
2023-01-26T15:15:42.815Z,22.09
2023-01-26T15:16:53.318Z,21.46
2023-01-26T15:18:08.237Z,20.31
2023-01-26T15:19:14.061Z,21.32
2023-01-26T15:20:26.662Z,20.52
2023-01-26T15:21:41.266Z,19.88
2023-01-26T15:22:52.638Z,21.48
2023-01-26T15:23:55.283Z,21.89
2023-01-26T15:25:03.571Z,22.17
2023-01-26T15:26:17.977Z,21.20
2023-01-26T15:27:21.722Z,21.56
2023-01-26T15:28:25.309Z,22.25
2023-01-26T15:29:33.216Z,19.67
2023-01-26T15:30:36.071Z,22.32
2023-01-26T15:31:42.323Z,21.05
2023-01-26T15:32:47.154Z,20.55
2023-01-26T15:33:51.987Z,20.75
2023-01-26T15:35:06.581Z,20.79
2023-01-26T15:36:29.731Z,20.71
2023-01-26T15:37:33.185Z,20.87
2023-01-26T15:38:35.078Z,20.11
2023-01-26T15:39:37.058Z,20.15
2023-01-26T15:40:39.706Z,22.08
2023-01-26T15:41:43.684Z,21.51
2023-01-26T15:42:45.588Z,20.35
2023-01-26T15:43:48.121Z,20.83
2023-01-26T15:44:50.175Z,20.58
2023-01-26T15:45:57.100Z,20.55
2023-01-26T15:46:59.423Z,20.24
2023-01-26T15:48:01.528Z,20.96
2023-01-26T15:49:03.391Z,21.42
2023-01-26T15:50:08.190Z,21.17
2023-01-26T15:51:13.183Z,21.16
2023-01-26T15:52:17.725Z,21.67
2023-01-26T15:53:21.635Z,21.59
2023-01-26T15:54:23.529Z,20.49
2023-01-26T15:55:27.842Z,21.53
2023-01-26T15:56:33.199Z,20.21
2023-01-26T15:57:35.205Z,22.08
2023-01-26T15:58:37.169Z,21.37
2023-01-26T15:59:40.184Z,19.87
2023-01-26T16:00:43.317Z,21.66
2023-01-26T16:01:45.393Z,20.91
2023-01-26T16:02:47.644Z,19.59
2023-01-26T16:03:50.451Z,20.73
2023-01-26T16:04:52.901Z,19.57
2023-01-26T16:05:55.631Z,20.36
2023-01-26T16:06:57.754Z,19.99
2023-01-26T16:07:59.632Z,20.74
2023-01-26T16:09:02.162Z,19.62
2023-01-26T16:10:05.709Z,21.46
2023-01-26T16:11:11.364Z,21.24
2023-01-26T16:12:31.279Z,21.30
2023-01-26T16:13:20.522Z,21.48
2023-01-26T16:14:22.493Z,20.25
2023-01-26T16:15:40.289Z,20.05
2023-01-26T16:16:43.149Z,21.14
2023-01-26T16:17:45.883Z,20.27
2023-01-26T16:18:47.766Z,19.89
2023-01-26T16:19:51.221Z,20.61
2023-01-26T16:20:53.421Z,20.20
2023-01-26T16:21:55.612Z,20.27
2023-01-26T16:22:57.750Z,19.75
2023-01-26T16:24:01.080Z,20.01
2023-01-26T16:26:18.473Z,20.13
2023-01-26T16:27:20.363Z,21.24
2023-01-26T16:28:22.506Z,20.62
2023-01-26T16:29:24.619Z,21.33
2023-01-26T16:30:26.710Z,19.40
2023-01-26T16:31:33.480Z,19.67
2023-01-26T16:32:35.567Z,20.66
2023-01-26T16:33:37.538Z,20.00
2023-01-26T16:34:39.436Z,19.63
2023-01-26T16:35:41.809Z,18.37
2023-01-26T16:36:43.901Z,19.03
2023-01-26T16:37:46.346Z,19.52
2023-01-26T16:38:49.165Z,19.85
2023-01-26T16:39:51.064Z,19.79
2023-01-26T16:40:53.709Z,18.35
2023-01-26T16:41:55.677Z,19.21
2023-01-26T16:42:57.858Z,19.38
2023-01-26T16:44:01.953Z,19.30
2023-01-26T16:45:06.244Z,17.96
2023-01-26T16:46:10.075Z,19.38
2023-01-26T16:47:12.026Z,18.38
2023-01-26T16:48:15.732Z,18.93
2023-01-26T16:49:17.711Z,19.85
2023-01-26T16:50:19.801Z,19.48
2023-01-26T16:51:27.638Z,20.07
2023-01-26T16:52:29.949Z,18.79
2023-01-26T16:53:33.607Z,20.08
2023-01-26T16:54:35.746Z,19.55
2023-01-26T16:55:37.733Z,19.65
2023-01-26T16:56:40.551Z,19.43
2023-01-26T16:57:44.682Z,20.81
2023-01-26T16:58:46.782Z,21.11
2023-01-26T16:59:48.781Z,20.67
2023-01-26T17:00:51.490Z,20.52
2023-01-26T17:01:54.074Z,21.18
2023-01-26T17:02:56.200Z,21.77
2023-01-26T17:03:59.074Z,26.49
2023-01-26T17:05:02.076Z,29.85
2023-01-26T17:06:04.299Z,32.98
2023-01-26T17:07:06.194Z,30.50
2023-01-26T17:08:09.758Z,23.55
2023-01-26T17:09:11.932Z,25.89
2023-01-26T17:10:15.239Z,23.61
2023-01-26T17:11:21.207Z,21.71
2023-01-26T17:12:23.219Z,21.13
2023-01-26T17:13:25.081Z,19.46
2023-01-26T17:14:27.047Z,21.41
2023-01-26T17:15:30.641Z,23.29
2023-01-26T17:16:32.761Z,23.12
2023-01-26T17:17:35.238Z,22.57
2023-01-26T17:18:37.281Z,21.71
2023-01-26T17:19:39.249Z,20.63
2023-01-26T17:20:41.529Z,20.23
2023-01-26T17:21:43.411Z,20.40
2023-01-26T17:22:46.014Z,21.69
2023-01-26T17:23:50.545Z,21.00
2023-01-26T17:24:52.723Z,19.71
2023-01-26T17:25:58.376Z,20.82
2023-01-26T17:27:00.663Z,20.17
2023-01-26T17:28:04.785Z,19.77
2023-01-26T17:29:06.885Z,20.59
2023-01-26T17:30:10.433Z,21.92
2023-01-26T17:31:16.767Z,19.99
2023-01-26T17:32:19.341Z,22.36
2023-01-26T17:33:21.222Z,20.64
2023-01-26T17:34:23.359Z,21.02
2023-01-26T17:35:25.322Z,20.23
2023-01-26T17:36:27.546Z,20.94
2023-01-26T17:37:29.460Z,21.59
2023-01-26T17:38:32.199Z,21.58
2023-01-26T17:39:34.512Z,19.47
2023-01-26T17:40:36.505Z,20.71
2023-01-26T17:41:38.377Z,19.03
2023-01-26T17:42:40.294Z,19.35
2023-01-26T17:43:42.294Z,20.17
2023-01-26T17:44:45.014Z,19.35
2023-01-26T17:45:47.038Z,20.14
2023-01-26T17:46:49.226Z,19.71
2023-01-26T17:47:51.222Z,19.76
2023-01-26T17:48:53.904Z,18.93
2023-01-26T21:59:16.346Z,19.23
2023-01-26T22:00:20.893Z,17.16
2023-01-26T22:01:24.398Z,18.73
2023-01-26T22:02:26.549Z,18.69
2023-01-26T22:03:29.444Z,17.65
2023-01-26T22:04:31.545Z,19.02
2023-01-26T22:05:34.057Z,17.96
2023-01-26T22:06:36.880Z,18.90
2023-01-26T22:07:39.680Z,17.47
2023-01-26T22:08:41.675Z,18.48
2023-01-26T22:09:43.573Z,17.19
2023-01-26T22:10:54.314Z,17.72
2023-01-26T22:11:56.301Z,17.70
2023-01-26T22:12:58.314Z,18.39
2023-01-26T22:14:00.726Z,16.94
2023-01-26T22:15:04.731Z,17.93
2023-01-26T22:16:08.547Z,16.83
2023-01-26T22:17:10.543Z,17.57
2023-01-26T22:18:13.787Z,16.76
2023-01-26T22:19:17.352Z,15.21
2023-01-26T22:20:20.413Z,16.61
2023-01-26T22:21:22.435Z,18.02
2023-01-26T22:22:24.492Z,15.89
2023-01-26T22:23:34.211Z,17.22
2023-01-26T22:24:36.205Z,15.36
2023-01-26T22:25:39.659Z,16.59
2023-01-26T22:26:41.961Z,15.95
2023-01-26T22:27:43.859Z,16.09
2023-01-26T22:31:05.812Z,17.00
2023-01-26T22:32:07.948Z,16.48
2023-01-26T22:33:09.913Z,16.59
2023-01-26T22:34:11.789Z,16.93
2023-01-26T22:35:14.268Z,16.69
2023-01-26T22:36:16.986Z,16.89
2023-01-26T22:37:23.096Z,17.45
2023-01-26T22:38:26.187Z,16.85
2023-01-26T22:39:28.083Z,17.11
2023-01-26T22:40:30.228Z,18.21
2023-01-26T22:41:32.173Z,18.42
2023-01-26T22:42:34.152Z,17.72
2023-01-26T22:43:36.574Z,15.79
2023-01-26T22:44:38.691Z,17.61
2023-01-26T22:45:40.673Z,17.05
2023-01-26T22:46:43.434Z,17.25
2023-01-26T22:47:47.930Z,17.39
2023-01-26T22:48:50.920Z,17.30
2023-01-26T22:49:52.913Z,18.53
2023-01-26T22:50:54.915Z,17.84
2023-01-26T22:51:56.795Z,18.25
2023-01-26T22:52:58.692Z,18.73
2023-01-26T22:54:00.601Z,18.13
2023-01-26T22:55:05.077Z,17.29
2023-01-26T22:56:09.913Z,17.60
2023-01-26T22:57:11.845Z,18.63
2023-01-26T22:58:13.740Z,18.04
2023-01-26T22:59:15.739Z,18.01
2023-01-26T23:00:18.232Z,19.05
2023-01-26T23:01:20.987Z,19.33
2023-01-26T23:02:24.137Z,20.02
2023-01-26T23:03:26.154Z,16.39
2023-01-26T23:04:29.053Z,19.95
2023-01-26T23:06:44.465Z,17.97
2023-01-26T23:07:46.386Z,18.99
2023-01-26T23:08:48.945Z,19.39
2023-01-26T23:09:51.650Z,18.53
2023-01-26T23:11:12.012Z,18.92
2023-01-26T23:12:14.165Z,18.88
2023-01-26T23:13:16.075Z,18.45
2023-01-26T23:14:18.020Z,18.06
2023-01-26T23:15:19.903Z,19.50
2023-01-26T23:16:24.430Z,19.26
2023-01-26T23:17:26.414Z,18.15
2023-01-26T23:18:29.317Z,18.00
2023-01-26T23:19:31.308Z,17.90
2023-01-26T23:20:33.691Z,17.69
2023-01-26T23:21:36.557Z,18.98
2023-01-26T23:22:38.623Z,17.45
2023-01-26T23:23:41.848Z,17.95
2023-01-26T23:24:43.837Z,19.36
2023-01-26T23:25:45.807Z,19.40
2023-01-26T23:26:48.009Z,22.43
2023-01-26T23:27:49.873Z,22.01
2023-01-26T23:28:52.036Z,22.86
2023-01-26T23:29:53.927Z,22.47
2023-01-26T23:30:57.483Z,23.55
2023-01-26T23:31:59.595Z,22.14
2023-01-26T23:33:02.455Z,24.11
2023-01-26T23:34:04.336Z,21.88
2023-01-26T23:35:07.222Z,22.74
2023-01-26T23:36:12.871Z,22.76
2023-01-26T23:37:14.897Z,22.43
2023-01-26T23:38:19.421Z,22.54
2023-01-26T23:39:21.353Z,23.62
2023-01-26T23:40:23.325Z,22.66
2023-01-26T23:41:25.441Z,22.03
2023-01-26T23:42:27.319Z,23.23
2023-01-26T23:43:29.402Z,20.69
2023-01-26T23:44:31.362Z,20.40
2023-01-26T23:45:36.573Z,22.60
2023-01-26T23:46:38.841Z,21.67
2023-01-26T23:47:42.087Z,21.97
2023-01-26T23:48:44.086Z,20.78
2023-01-26T23:49:45.974Z,21.93
2023-01-26T23:50:48.591Z,22.21
2023-01-26T23:51:50.644Z,24.05
